sensor_id;sensor_type;location;lat;lon;timestamp;P1;durP1;ratioP1;P2;durP2;ratioP2
23400;SDS011;11873;49.300;8.920;2023-08-24T00:01:56;2.67;;;2.47;;
23400;SDS011;11873;49.300;8.920;2023-08-24T00:06:56;3.03;;;2.72;;
23400;SDS011;11873;49.300;8.920;2023-08-24T00:11:56;4.57;;;2.90;;
23400;SDS011;11873;49.300;8.920;2023-08-24T00:16:57;6.43;;;3.03;;
23400;SDS011;11873;49.300;8.920;2023-08-24T00:21:57;2.90;;;2.70;;
23400;SDS011;11873;49.300;8.920;2023-08-24T00:26:57;4.37;;;3.03;;
23400;SDS011;11873;49.300;8.920;2023-08-24T00:31:57;4.15;;;2.97;;
23400;SDS011;11873;49.300;8.920;2023-08-24T00:36:57;5.37;;;3.10;;
23400;SDS011;11873;49.300;8.920;2023-08-24T00:41:57;5.78;;;2.97;;
23400;SDS011;11873;49.300;8.920;2023-08-24T00:46:58;3.60;;;2.80;;
23400;SDS011;11873;49.300;8.920;2023-08-24T00:51:58;5.75;;;2.95;;
23400;SDS011;11873;49.300;8.920;2023-08-24T00:56:59;4.45;;;3.08;;
23400;SDS011;11873;49.300;8.920;2023-08-24T01:02:00;3.00;;;2.72;;
23400;SDS011;11873;49.300;8.920;2023-08-24T01:07:00;5.12;;;2.97;;
23400;SDS011;11873;49.300;8.920;2023-08-24T01:12:04;4.40;;;3.35;;
23400;SDS011;11873;49.300;8.920;2023-08-24T01:17:07;3.83;;;3.00;;
23400;SDS011;11873;49.300;8.920;2023-08-24T01:27:27;3.87;;;3.20;;
23400;SDS011;11873;49.300;8.920;2023-08-24T01:32:29;3.10;;;2.87;;
23400;SDS011;11873;49.300;8.920;2023-08-24T01:37:30;3.80;;;2.78;;
23400;SDS011;11873;49.300;8.920;2023-08-24T01:42:30;2.95;;;2.67;;
23400;SDS011;11873;49.300;8.920;2023-08-24T01:47:31;6.87;;;2.80;;
23400;SDS011;11873;49.300;8.920;2023-08-24T01:52:32;3.53;;;2.83;;
23400;SDS011;11873;49.300;8.920;2023-08-24T01:57:32;3.60;;;3.30;;
23400;SDS011;11873;49.300;8.920;2023-08-24T02:02:34;3.10;;;2.78;;
23400;SDS011;11873;49.300;8.920;2023-08-24T02:07:34;4.25;;;2.70;;
23400;SDS011;11873;49.300;8.920;2023-08-24T02:12:34;4.87;;;3.22;;
23400;SDS011;11873;49.300;8.920;2023-08-24T02:17:35;3.85;;;3.22;;
23400;SDS011;11873;49.300;8.920;2023-08-24T02:22:35;4.30;;;3.10;;
23400;SDS011;11873;49.300;8.920;2023-08-24T02:27:35;3.25;;;2.95;;
23400;SDS011;11873;49.300;8.920;2023-08-24T02:32:35;2.80;;;2.60;;
23400;SDS011;11873;49.300;8.920;2023-08-24T02:37:35;3.03;;;2.78;;
23400;SDS011;11873;49.300;8.920;2023-08-24T02:42:36;3.47;;;2.75;;
23400;SDS011;11873;49.300;8.920;2023-08-24T02:47:36;6.10;;;2.83;;
23400;SDS011;11873;49.300;8.920;2023-08-24T02:52:36;5.37;;;2.60;;
23400;SDS011;11873;49.300;8.920;2023-08-24T02:57:36;3.08;;;2.85;;
23400;SDS011;11873;49.300;8.920;2023-08-24T03:02:36;3.40;;;2.90;;
23400;SDS011;11873;49.300;8.920;2023-08-24T03:07:36;5.18;;;3.30;;
23400;SDS011;11873;49.300;8.920;2023-08-24T03:12:37;3.25;;;2.97;;
23400;SDS011;11873;49.300;8.920;2023-08-24T03:17:37;3.58;;;2.78;;
23400;SDS011;11873;49.300;8.920;2023-08-24T03:22:37;3.85;;;2.80;;
23400;SDS011;11873;49.300;8.920;2023-08-24T03:27:37;4.57;;;3.20;;
23400;SDS011;11873;49.300;8.920;2023-08-24T03:32:39;5.82;;;2.90;;
23400;SDS011;11873;49.300;8.920;2023-08-24T03:37:39;3.75;;;2.75;;
23400;SDS011;11873;49.300;8.920;2023-08-24T03:42:39;3.05;;;2.70;;
23400;SDS011;11873;49.300;8.920;2023-08-24T03:47:40;3.25;;;2.95;;
23400;SDS011;11873;49.300;8.920;2023-08-24T03:52:40;3.40;;;3.10;;
23400;SDS011;11873;49.300;8.920;2023-08-24T03:57:41;3.47;;;3.20;;
23400;SDS011;11873;49.300;8.920;2023-08-24T04:02:41;3.60;;;2.90;;
23400;SDS011;11873;49.300;8.920;2023-08-24T04:07:41;3.83;;;3.42;;
23400;SDS011;11873;49.300;8.920;2023-08-24T04:12:41;3.40;;;3.03;;
23400;SDS011;11873;49.300;8.920;2023-08-24T04:17:42;3.40;;;3.17;;
23400;SDS011;11873;49.300;8.920;2023-08-24T04:22:42;3.47;;;3.17;;
23400;SDS011;11873;49.300;8.920;2023-08-24T04:27:42;3.28;;;2.97;;
23400;SDS011;11873;49.300;8.920;2023-08-24T04:32:42;4.12;;;3.37;;
23400;SDS011;11873;49.300;8.920;2023-08-24T04:37:43;3.05;;;2.85;;
23400;SDS011;11873;49.300;8.920;2023-08-24T04:42:43;4.18;;;3.45;;
23400;SDS011;11873;49.300;8.920;2023-08-24T04:47:43;3.45;;;2.97;;
23400;SDS011;11873;49.300;8.920;2023-08-24T04:52:43;3.58;;;3.28;;
23400;SDS011;11873;49.300;8.920;2023-08-24T04:57:43;3.33;;;3.00;;
23400;SDS011;11873;49.300;8.920;2023-08-24T05:02:43;2.65;;;2.45;;
23400;SDS011;11873;49.300;8.920;2023-08-24T05:07:44;3.47;;;2.58;;
23400;SDS011;11873;49.300;8.920;2023-08-24T05:12:44;3.15;;;2.85;;
23400;SDS011;11873;49.300;8.920;2023-08-24T05:17:44;3.58;;;2.95;;
23400;SDS011;11873;49.300;8.920;2023-08-24T05:22:44;3.30;;;3.00;;
23400;SDS011;11873;49.300;8.920;2023-08-24T05:27:44;3.20;;;2.95;;
23400;SDS011;11873;49.300;8.920;2023-08-24T05:32:44;3.05;;;2.67;;
23400;SDS011;11873;49.300;8.920;2023-08-24T05:37:45;3.05;;;2.80;;
23400;SDS011;11873;49.300;8.920;2023-08-24T05:42:45;4.55;;;3.08;;
23400;SDS011;11873;49.300;8.920;2023-08-24T05:47:45;3.55;;;3.22;;
23400;SDS011;11873;49.300;8.920;2023-08-24T05:52:45;3.03;;;2.80;;
23400;SDS011;11873;49.300;8.920;2023-08-24T05:57:45;3.03;;;2.80;;
23400;SDS011;11873;49.300;8.920;2023-08-24T06:02:46;3.10;;;2.90;;
23400;SDS011;11873;49.300;8.920;2023-08-24T06:07:46;6.43;;;3.47;;
23400;SDS011;11873;49.300;8.920;2023-08-24T06:12:46;3.33;;;2.40;;
23400;SDS011;11873;49.300;8.920;2023-08-24T06:17:46;2.72;;;2.50;;
23400;SDS011;11873;49.300;8.920;2023-08-24T06:22:46;2.58;;;2.37;;
23400;SDS011;11873;49.300;8.920;2023-08-24T06:27:47;2.15;;;1.92;;
23400;SDS011;11873;49.300;8.920;2023-08-24T06:32:47;3.10;;;2.30;;
23400;SDS011;11873;49.300;8.920;2023-08-24T06:37:47;2.45;;;2.25;;
23400;SDS011;11873;49.300;8.920;2023-08-24T06:42:47;3.80;;;2.45;;
23400;SDS011;11873;49.300;8.920;2023-08-24T06:47:47;2.75;;;2.22;;
23400;SDS011;11873;49.300;8.920;2023-08-24T06:52:48;3.83;;;2.83;;
23400;SDS011;11873;49.300;8.920;2023-08-24T06:57:48;5.00;;;2.28;;
23400;SDS011;11873;49.300;8.920;2023-08-24T07:02:49;2.50;;;2.30;;
23400;SDS011;11873;49.300;8.920;2023-08-24T07:07:49;2.85;;;2.10;;
23400;SDS011;11873;49.300;8.920;2023-08-24T07:12:50;2.40;;;1.80;;
23400;SDS011;11873;49.300;8.920;2023-08-24T07:17:50;1.90;;;1.80;;
23400;SDS011;11873;49.300;8.920;2023-08-24T07:22:50;2.28;;;2.08;;
23400;SDS011;11873;49.300;8.920;2023-08-24T07:27:50;2.42;;;2.22;;
23400;SDS011;11873;49.300;8.920;2023-08-24T07:32:50;2.67;;;2.08;;
23400;SDS011;11873;49.300;8.920;2023-08-24T07:37:51;2.33;;;2.17;;
23400;SDS011;11873;49.300;8.920;2023-08-24T07:42:51;2.37;;;2.17;;
23400;SDS011;11873;49.300;8.920;2023-08-24T07:47:52;3.15;;;2.17;;
23400;SDS011;11873;49.300;8.920;2023-08-24T07:52:52;2.60;;;2.37;;
23400;SDS011;11873;49.300;8.920;2023-08-24T07:57:52;2.25;;;2.12;;
23400;SDS011;11873;49.300;8.920;2023-08-24T08:02:52;2.58;;;2.37;;
23400;SDS011;11873;49.300;8.920;2023-08-24T08:07:53;2.95;;;2.58;;
23400;SDS011;11873;49.300;8.920;2023-08-24T08:12:53;4.20;;;2.22;;
23400;SDS011;11873;49.300;8.920;2023-08-24T08:17:53;4.95;;;3.10;;
23400;SDS011;11873;49.300;8.920;2023-08-24T08:22:53;2.85;;;2.25;;
23400;SDS011;11873;49.300;8.920;2023-08-24T08:27:53;2.80;;;2.60;;
23400;SDS011;11873;49.300;8.920;2023-08-24T08:32:53;3.40;;;2.55;;
23400;SDS011;11873;49.300;8.920;2023-08-24T08:37:54;2.60;;;2.40;;
23400;SDS011;11873;49.300;8.920;2023-08-24T08:42:55;1.60;;;1.50;;
23400;SDS011;11873;49.300;8.920;2023-08-24T08:47:56;2.55;;;2.33;;
23400;SDS011;11873;49.300;8.920;2023-08-24T08:52:57;2.25;;;1.98;;
23400;SDS011;11873;49.300;8.920;2023-08-24T08:57:58;2.45;;;2.25;;
23400;SDS011;11873;49.300;8.920;2023-08-24T09:02:58;2.75;;;2.40;;
23400;SDS011;11873;49.300;8.920;2023-08-24T09:07:59;3.22;;;2.95;;
23400;SDS011;11873;49.300;8.920;2023-08-24T09:12:59;5.47;;;2.08;;
23400;SDS011;11873;49.300;8.920;2023-08-24T09:17:59;2.87;;;2.50;;
23400;SDS011;11873;49.300;8.920;2023-08-24T09:22:59;3.80;;;2.45;;
23400;SDS011;11873;49.300;8.920;2023-08-24T09:28:00;3.92;;;2.50;;
23400;SDS011;11873;49.300;8.920;2023-08-24T09:33:01;3.40;;;2.92;;
23400;SDS011;11873;49.300;8.920;2023-08-24T09:43:17;3.35;;;2.62;;
23400;SDS011;11873;49.300;8.920;2023-08-24T09:48:18;2.55;;;2.35;;
23400;SDS011;11873;49.300;8.920;2023-08-24T09:53:19;2.92;;;2.62;;
23400;SDS011;11873;49.300;8.920;2023-08-24T09:58:20;3.42;;;2.60;;
23400;SDS011;11873;49.300;8.920;2023-08-24T10:03:20;3.15;;;2.80;;
23400;SDS011;11873;49.300;8.920;2023-08-24T10:08:22;2.55;;;2.35;;
23400;SDS011;11873;49.300;8.920;2023-08-24T10:13:56;3.05;;;2.80;;
23400;SDS011;11873;49.300;8.920;2023-08-24T10:18:44;4.70;;;2.83;;
23400;SDS011;11873;49.300;8.920;2023-08-24T10:23:45;4.37;;;2.90;;
23400;SDS011;11873;49.300;8.920;2023-08-24T10:28:46;2.90;;;2.70;;
23400;SDS011;11873;49.300;8.920;2023-08-24T10:33:46;5.55;;;3.00;;
23400;SDS011;11873;49.300;8.920;2023-08-24T10:38:47;3.80;;;2.92;;
23400;SDS011;11873;49.300;8.920;2023-08-24T10:43:50;2.55;;;2.35;;
23400;SDS011;11873;49.300;8.920;2023-08-24T10:53:55;3.17;;;2.87;;
23400;SDS011;11873;49.300;8.920;2023-08-24T10:59:17;3.10;;;2.72;;
23400;SDS011;11873;49.300;8.920;2023-08-24T11:04:16;3.22;;;2.83;;
23400;SDS011;11873;49.300;8.920;2023-08-24T11:09:16;5.15;;;2.90;;
23400;SDS011;11873;49.300;8.920;2023-08-24T11:14:17;3.40;;;2.90;;
23400;SDS011;11873;49.300;8.920;2023-08-24T11:19:18;3.90;;;2.72;;
23400;SDS011;11873;49.300;8.920;2023-08-24T11:24:18;4.07;;;3.22;;
23400;SDS011;11873;49.300;8.920;2023-08-24T11:29:18;3.22;;;2.92;;
23400;SDS011;11873;49.300;8.920;2023-08-24T11:34:18;3.33;;;3.03;;
23400;SDS011;11873;49.300;8.920;2023-08-24T11:39:19;4.57;;;2.80;;
23400;SDS011;11873;49.300;8.920;2023-08-24T11:44:19;3.62;;;3.10;;
23400;SDS011;11873;49.300;8.920;2023-08-24T11:49:20;4.90;;;3.35;;
23400;SDS011;11873;49.300;8.920;2023-08-24T11:54:20;3.60;;;2.67;;
23400;SDS011;11873;49.300;8.920;2023-08-24T11:59:20;3.87;;;3.47;;
23400;SDS011;11873;49.300;8.920;2023-08-24T12:04:20;3.87;;;3.50;;
23400;SDS011;11873;49.300;8.920;2023-08-24T12:09:20;3.40;;;3.10;;
23400;SDS011;11873;49.300;8.920;2023-08-24T12:14:21;4.60;;;3.55;;
23400;SDS011;11873;49.300;8.920;2023-08-24T12:19:21;4.35;;;3.40;;
23400;SDS011;11873;49.300;8.920;2023-08-24T12:24:21;2.97;;;2.78;;
23400;SDS011;11873;49.300;8.920;2023-08-24T12:29:21;4.60;;;2.97;;
23400;SDS011;11873;49.300;8.920;2023-08-24T12:34:21;3.12;;;2.92;;
23400;SDS011;11873;49.300;8.920;2023-08-24T12:39:22;3.72;;;3.15;;
23400;SDS011;11873;49.300;8.920;2023-08-24T12:44:22;3.03;;;2.83;;
23400;SDS011;11873;49.300;8.920;2023-08-24T12:49:22;3.17;;;2.87;;
23400;SDS011;11873;49.300;8.920;2023-08-24T12:54:22;3.70;;;3.40;;
23400;SDS011;11873;49.300;8.920;2023-08-24T12:59:22;3.42;;;3.10;;
23400;SDS011;11873;49.300;8.920;2023-08-24T13:04:23;5.75;;;3.37;;
23400;SDS011;11873;49.300;8.920;2023-08-24T13:09:23;3.80;;;3.50;;
23400;SDS011;11873;49.300;8.920;2023-08-24T13:14:23;9.68;;;3.15;;
23400;SDS011;11873;49.300;8.920;2023-08-24T13:19:23;5.05;;;3.25;;
23400;SDS011;11873;49.300;8.920;2023-08-24T13:24:23;4.10;;;3.53;;
23400;SDS011;11873;49.300;8.920;2023-08-24T13:29:24;5.10;;;3.40;;
23400;SDS011;11873;49.300;8.920;2023-08-24T13:34:24;4.53;;;3.28;;
23400;SDS011;11873;49.300;8.920;2023-08-24T13:39:27;3.85;;;3.55;;
23400;SDS011;11873;49.300;8.920;2023-08-24T13:44:27;6.78;;;3.37;;
23400;SDS011;11873;49.300;8.920;2023-08-24T13:49:27;4.55;;;4.10;;
23400;SDS011;11873;49.300;8.920;2023-08-24T13:54:28;4.20;;;3.83;;
23400;SDS011;11873;49.300;8.920;2023-08-24T13:59:28;7.80;;;4.12;;
23400;SDS011;11873;49.300;8.920;2023-08-24T14:04:31;4.85;;;4.37;;
23400;SDS011;11873;49.300;8.920;2023-08-24T14:09:32;3.83;;;3.33;;
23400;SDS011;11873;49.300;8.920;2023-08-24T14:14:32;5.65;;;3.83;;
23400;SDS011;11873;49.300;8.920;2023-08-24T14:19:33;3.72;;;3.42;;
23400;SDS011;11873;49.300;8.920;2023-08-24T14:24:33;4.10;;;3.80;;
23400;SDS011;11873;49.300;8.920;2023-08-24T14:29:33;3.62;;;3.33;;
23400;SDS011;11873;49.300;8.920;2023-08-24T14:34:34;3.90;;;3.42;;
23400;SDS011;11873;49.300;8.920;2023-08-24T14:39:34;3.90;;;3.25;;
23400;SDS011;11873;49.300;8.920;2023-08-24T14:44:34;8.48;;;3.70;;
23400;SDS011;11873;49.300;8.920;2023-08-24T14:49:34;8.80;;;3.70;;
23400;SDS011;11873;49.300;8.920;2023-08-24T14:54:35;5.47;;;4.40;;
23400;SDS011;11873;49.300;8.920;2023-08-24T14:59:35;3.90;;;3.60;;
23400;SDS011;11873;49.300;8.920;2023-08-24T15:04:35;5.53;;;4.80;;
23400;SDS011;11873;49.300;8.920;2023-08-24T15:09:35;8.13;;;5.05;;
23400;SDS011;11873;49.300;8.920;2023-08-24T15:14:35;5.53;;;4.75;;
23400;SDS011;11873;49.300;8.920;2023-08-24T15:19:36;8.73;;;5.28;;
23400;SDS011;11873;49.300;8.920;2023-08-24T15:24:36;5.62;;;4.65;;
23400;SDS011;11873;49.300;8.920;2023-08-24T15:29:36;4.25;;;3.95;;
23400;SDS011;11873;49.300;8.920;2023-08-24T15:34:36;4.37;;;3.55;;
23400;SDS011;11873;49.300;8.920;2023-08-24T15:39:37;3.28;;;2.95;;
23400;SDS011;11873;49.300;8.920;2023-08-24T15:44:38;3.62;;;3.25;;
23400;SDS011;11873;49.300;8.920;2023-08-24T15:49:38;3.85;;;2.87;;
23400;SDS011;11873;49.300;8.920;2023-08-24T15:54:38;3.55;;;2.87;;
23400;SDS011;11873;49.300;8.920;2023-08-24T15:59:38;3.78;;;3.45;;
23400;SDS011;11873;49.300;8.920;2023-08-24T16:04:38;4.80;;;3.50;;
23400;SDS011;11873;49.300;8.920;2023-08-24T16:09:39;3.10;;;2.83;;
23400;SDS011;11873;49.300;8.920;2023-08-24T16:14:39;3.92;;;3.53;;
23400;SDS011;11873;49.300;8.920;2023-08-24T16:19:39;4.32;;;3.92;;
23400;SDS011;11873;49.300;8.920;2023-08-24T16:24:39;4.12;;;3.80;;
23400;SDS011;11873;49.300;8.920;2023-08-24T16:29:39;4.85;;;4.10;;
23400;SDS011;11873;49.300;8.920;2023-08-24T16:34:43;5.00;;;4.18;;
23400;SDS011;11873;49.300;8.920;2023-08-24T16:39:43;7.78;;;5.32;;
23400;SDS011;11873;49.300;8.920;2023-08-24T16:44:43;5.18;;;4.78;;
23400;SDS011;11873;49.300;8.920;2023-08-24T16:49:43;5.18;;;3.95;;
23400;SDS011;11873;49.300;8.920;2023-08-24T16:54:43;4.50;;;4.10;;
23400;SDS011;11873;49.300;8.920;2023-08-24T16:59:44;4.10;;;3.70;;
23400;SDS011;11873;49.300;8.920;2023-08-24T17:04:44;4.37;;;3.97;;
23400;SDS011;11873;49.300;8.920;2023-08-24T17:09:44;4.93;;;4.37;;
23400;SDS011;11873;49.300;8.920;2023-08-24T17:14:44;7.55;;;4.95;;
23400;SDS011;11873;49.300;8.920;2023-08-24T17:19:44;5.65;;;4.37;;
23400;SDS011;11873;49.300;8.920;2023-08-24T17:24:44;6.95;;;4.75;;
23400;SDS011;11873;49.300;8.920;2023-08-24T17:29:45;4.60;;;4.20;;
23400;SDS011;11873;49.300;8.920;2023-08-24T17:34:45;5.00;;;4.22;;
23400;SDS011;11873;49.300;8.920;2023-08-24T17:39:45;8.35;;;4.80;;
23400;SDS011;11873;49.300;8.920;2023-08-24T17:44:45;6.53;;;5.45;;
23400;SDS011;11873;49.300;8.920;2023-08-24T17:49:45;5.87;;;4.80;;
23400;SDS011;11873;49.300;8.920;2023-08-24T17:54:46;6.03;;;5.15;;
23400;SDS011;11873;49.300;8.920;2023-08-24T17:59:46;5.35;;;4.78;;
23400;SDS011;11873;49.300;8.920;2023-08-24T18:04:46;4.95;;;4.55;;
23400;SDS011;11873;49.300;8.920;2023-08-24T18:09:46;8.48;;;5.45;;
23400;SDS011;11873;49.300;8.920;2023-08-24T18:14:46;6.30;;;5.70;;
23400;SDS011;11873;49.300;8.920;2023-08-24T18:19:47;6.75;;;6.15;;
23400;SDS011;11873;49.300;8.920;2023-08-24T18:24:47;6.37;;;5.55;;
23400;SDS011;11873;49.300;8.920;2023-08-24T18:29:47;6.07;;;5.55;;
23400;SDS011;11873;49.300;8.920;2023-08-24T18:34:47;5.93;;;5.00;;
23400;SDS011;11873;49.300;8.920;2023-08-24T18:39:47;7.15;;;5.68;;
23400;SDS011;11873;49.300;8.920;2023-08-24T18:44:48;7.82;;;5.57;;
23400;SDS011;11873;49.300;8.920;2023-08-24T18:49:48;6.35;;;5.20;;
23400;SDS011;11873;49.300;8.920;2023-08-24T18:54:48;7.03;;;6.43;;
23400;SDS011;11873;49.300;8.920;2023-08-24T18:59:48;8.13;;;6.25;;
23400;SDS011;11873;49.300;8.920;2023-08-24T19:04:48;7.68;;;5.93;;
23400;SDS011;11873;49.300;8.920;2023-08-24T19:09:49;6.30;;;5.45;;
23400;SDS011;11873;49.300;8.920;2023-08-24T19:14:49;6.97;;;6.28;;
23400;SDS011;11873;49.300;8.920;2023-08-24T19:19:49;7.12;;;6.43;;
23400;SDS011;11873;49.300;8.920;2023-08-24T19:24:49;12.68;;;6.65;;
23400;SDS011;11873;49.300;8.920;2023-08-24T19:29:49;6.35;;;5.85;;
23400;SDS011;11873;49.300;8.920;2023-08-24T19:34:50;5.97;;;5.30;;
23400;SDS011;11873;49.300;8.920;2023-08-24T19:39:50;9.05;;;6.10;;
23400;SDS011;11873;49.300;8.920;2023-08-24T19:44:50;6.50;;;5.87;;
23400;SDS011;11873;49.300;8.920;2023-08-24T19:49:50;6.93;;;6.20;;
23400;SDS011;11873;49.300;8.920;2023-08-24T19:54:50;6.57;;;5.53;;
23400;SDS011;11873;49.300;8.920;2023-08-24T19:59:51;7.53;;;5.47;;
23400;SDS011;11873;49.300;8.920;2023-08-24T20:04:51;9.63;;;6.00;;
23400;SDS011;11873;49.300;8.920;2023-08-24T20:09:51;6.00;;;5.40;;
23400;SDS011;11873;49.300;8.920;2023-08-24T20:14:51;9.55;;;6.25;;
23400;SDS011;11873;49.300;8.920;2023-08-24T20:19:52;7.22;;;5.97;;
23400;SDS011;11873;49.300;8.920;2023-08-24T20:24:52;7.70;;;6.90;;
23400;SDS011;11873;49.300;8.920;2023-08-24T20:29:52;6.70;;;6.10;;
23400;SDS011;11873;49.300;8.920;2023-08-24T20:34:52;6.65;;;5.97;;
23400;SDS011;11873;49.300;8.920;2023-08-24T20:39:52;8.35;;;7.15;;
23400;SDS011;11873;49.300;8.920;2023-08-24T20:44:53;6.65;;;6.05;;
23400;SDS011;11873;49.300;8.920;2023-08-24T20:49:53;7.50;;;6.80;;
23400;SDS011;11873;49.300;8.920;2023-08-24T20:54:53;7.70;;;6.40;;
23400;SDS011;11873;49.300;8.920;2023-08-24T20:59:53;6.85;;;6.05;;
23400;SDS011;11873;49.300;8.920;2023-08-24T21:04:54;8.02;;;6.37;;
23400;SDS011;11873;49.300;8.920;2023-08-24T21:09:54;7.15;;;6.53;;
23400;SDS011;11873;49.300;8.920;2023-08-24T21:14:54;7.15;;;6.10;;
23400;SDS011;11873;49.300;8.920;2023-08-24T21:19:55;7.28;;;6.37;;
23400;SDS011;11873;49.300;8.920;2023-08-24T21:24:55;9.40;;;6.45;;
23400;SDS011;11873;49.300;8.920;2023-08-24T21:29:55;8.07;;;6.87;;
23400;SDS011;11873;49.300;8.920;2023-08-24T21:34:56;6.72;;;5.82;;
23400;SDS011;11873;49.300;8.920;2023-08-24T21:39:56;6.30;;;5.68;;
23400;SDS011;11873;49.300;8.920;2023-08-24T21:44:56;7.62;;;6.93;;
23400;SDS011;11873;49.300;8.920;2023-08-24T21:49:56;7.15;;;6.47;;
23400;SDS011;11873;49.300;8.920;2023-08-24T21:54:56;9.43;;;7.12;;
23400;SDS011;11873;49.300;8.920;2023-08-24T21:59:57;8.23;;;7.43;;
23400;SDS011;11873;49.300;8.920;2023-08-24T22:04:57;7.22;;;6.43;;
23400;SDS011;11873;49.300;8.920;2023-08-24T22:09:57;9.30;;;7.70;;
23400;SDS011;11873;49.300;8.920;2023-08-24T22:14:57;8.25;;;7.57;;
23400;SDS011;11873;49.300;8.920;2023-08-24T22:19:58;8.43;;;7.20;;
23400;SDS011;11873;49.300;8.920;2023-08-24T22:24:58;8.15;;;7.35;;
23400;SDS011;11873;49.300;8.920;2023-08-24T22:29:58;8.90;;;7.37;;
23400;SDS011;11873;49.300;8.920;2023-08-24T22:34:58;7.68;;;6.97;;
23400;SDS011;11873;49.300;8.920;2023-08-24T22:39:59;9.05;;;8.10;;
23400;SDS011;11873;49.300;8.920;2023-08-24T22:44:59;8.10;;;7.30;;
23400;SDS011;11873;49.300;8.920;2023-08-24T22:50:03;8.57;;;7.75;;
23400;SDS011;11873;49.300;8.920;2023-08-24T22:55:03;8.75;;;7.18;;
23400;SDS011;11873;49.300;8.920;2023-08-24T23:00:04;10.23;;;7.90;;
23400;SDS011;11873;49.300;8.920;2023-08-24T23:05:05;9.38;;;8.40;;
23400;SDS011;11873;49.300;8.920;2023-08-24T23:10:05;8.65;;;7.85;;
23400;SDS011;11873;49.300;8.920;2023-08-24T23:15:06;9.73;;;7.28;;
23400;SDS011;11873;49.300;8.920;2023-08-24T23:20:07;7.93;;;7.20;;
23400;SDS011;11873;49.300;8.920;2023-08-24T23:25:07;8.40;;;7.60;;
23400;SDS011;11873;49.300;8.920;2023-08-24T23:30:08;8.55;;;7.78;;
23400;SDS011;11873;49.300;8.920;2023-08-24T23:35:08;9.93;;;7.75;;
23400;SDS011;11873;49.300;8.920;2023-08-24T23:40:08;9.93;;;7.60;;
23400;SDS011;11873;49.300;8.920;2023-08-24T23:45:09;9.30;;;6.90;;
23400;SDS011;11873;49.300;8.920;2023-08-24T23:50:09;9.18;;;7.40;;
23400;SDS011;11873;49.300;8.920;2023-08-24T23:55:09;9.23;;;6.68;;
